»·PEaware :: N900TS KIFP-KSNA

N900TS :: KIFP-KSNA

FLIGHT INFORMATION

Flight Status: Arrived
Operator: Privately registered:
United States
More flights under this callsign
Pilot: Vlad D. (11271)
Aircraft: SOCATA TBM-900
(TBM9)
More flights by this aircraft type
Origin: KIFP Laughlin/Bullhead Intl
United States
Destination: KSNA John Wayne-Orange Co
United States
More flights between these airports :: More routes between these airports
Route: +EED V208 TNP PSP KAYOH7
File this flight plan on PilotEdge
Remarks:
Altitude:
(Current/Filed)
26,000ft
Speed:
(Current/Filed)
280kts
Departed: 29-Mar-19 07:26 AM
Arrived: 29-Mar-19 08:26 AM
Distance/Time
Traveled:
187nm/1:00
Distance/Time
To Go:
Arrived

Flight Plot

Page will automatically refresh every two minutes.

Flight plan parsing failed; only flown route is shown


Map Options




Map Legend


Flown Route
Filed Route
Departure Airport
Arrival Airport
Navaid (VOR, NDB)
Fix

Horizontal Profiles

Position Reports

Time Latitude Longitude Heading Altitude Ground
Speed
29-Mar-19 06:47 35.158610 -114.556005 266 704ft 0kts
29-Mar-19 06:48 35.158610 -114.556005 266 704ft 0kts
29-Mar-19 06:49 35.158610 -114.556005 266 704ft 0kts
29-Mar-19 06:50 35.158610 -114.556005 266 704ft 0kts
29-Mar-19 06:51 35.158610 -114.556005 266 704ft 0kts
29-Mar-19 06:52 35.158610 -114.556005 266 704ft 0kts
29-Mar-19 06:53 35.158610 -114.556005 266 704ft 0kts
29-Mar-19 06:54 35.158610 -114.556005 266 704ft 0kts
29-Mar-19 06:55 35.158610 -114.556005 266 704ft 0kts
29-Mar-19 06:56 35.158610 -114.556005 266 704ft 0kts
29-Mar-19 06:57 35.158610 -114.556005 266 704ft 0kts
29-Mar-19 06:58 35.158610 -114.556005 266 704ft 0kts
29-Mar-19 06:59 35.158610 -114.556005 266 704ft 0kts
29-Mar-19 07:00 35.158610 -114.556005 266 704ft 0kts
29-Mar-19 07:01 35.158610 -114.556005 266 704ft 0kts
29-Mar-19 07:02 35.158610 -114.556005 266 704ft 0kts
29-Mar-19 07:03 35.158610 -114.556005 266 704ft 0kts
29-Mar-19 07:04 35.158610 -114.556005 266 704ft 0kts
29-Mar-19 07:05 35.158610 -114.556005 266 704ft 0kts
29-Mar-19 07:06 35.158610 -114.556005 266 704ft 0kts
29-Mar-19 07:07 35.158610 -114.556005 266 704ft 0kts
29-Mar-19 07:08 35.158610 -114.556005 266 704ft 0kts
29-Mar-19 07:09 35.158610 -114.556005 266 704ft 0kts
29-Mar-19 07:10 35.158610 -114.556005 266 704ft 0kts
29-Mar-19 07:11 35.158610 -114.556005 266 704ft 0kts
29-Mar-19 07:12 35.158610 -114.556006 266 704ft 0kts
29-Mar-19 07:13 35.158610 -114.556006 266 704ft 0kts
29-Mar-19 07:14 35.158610 -114.556006 266 704ft 0kts
29-Mar-19 07:15 35.158610 -114.556006 266 704ft 0kts
29-Mar-19 07:16 35.157075 -114.556436 174 704ft 13kts
29-Mar-19 07:17 35.154437 -114.557940 180 704ft 11kts
29-Mar-19 07:18 35.151588 -114.557711 176 704ft 9kts
29-Mar-19 07:19 35.149025 -114.557512 175 704ft 9kts
29-Mar-19 07:20 35.145115 -114.557243 176 704ft 16kts
29-Mar-19 07:21 35.143187 -114.557441 249 704ft 0kts
29-Mar-19 07:22 35.143187 -114.557441 249 704ft 0kts
29-Mar-19 07:23 35.143181 -114.557463 250 704ft 2kts
29-Mar-19 07:24 35.143868 -114.558526 355 704ft 0kts
29-Mar-19 07:25 35.164163 -114.560518 356 1323ft 126kts
29-Mar-19 07:26 35.196796 -114.549842 85 3179ft 140kts
29-Mar-19 07:27 35.164662 -114.532103 172 5140ft 155kts
29-Mar-19 07:28 35.118571 -114.526211 171 7187ft 172kts
29-Mar-19 07:29 35.071182 -114.519245 172 9272ft 174kts
29-Mar-19 07:30 35.023677 -114.512139 175 11360ft 173kts
29-Mar-19 07:31 34.974908 -114.504861 180 13503ft 181kts
29-Mar-19 07:32 34.924320 -114.497368 184 15650ft 186kts
29-Mar-19 07:33 34.872738 -114.489754 188 17803ft 187kts
29-Mar-19 07:34 34.820944 -114.482166 189 19936ft 192kts
29-Mar-19 07:35 34.768891 -114.477317 225 22049ft 160kts
29-Mar-19 07:36 34.744781 -114.518399 247 23181ft 184kts
29-Mar-19 07:37 34.713773 -114.579706 246 23158ft 232kts
29-Mar-19 07:38 34.679228 -114.648869 246 23491ft 235kts
29-Mar-19 07:39 34.646884 -114.713716 247 24761ft 214kts
29-Mar-19 07:40 34.617064 -114.773454 248 26036ft 202kts
29-Mar-19 07:41 34.585815 -114.836097 247 26151ft 231kts
29-Mar-19 07:42 34.551317 -114.904923 247 26142ft 244kts
29-Mar-19 07:43 34.515673 -114.975906 247 26138ft 248kts
29-Mar-19 07:44 34.479396 -115.048037 246 26137ft 252kts
29-Mar-19 07:45 34.442698 -115.120849 246 26136ft 254kts
29-Mar-19 07:46 34.405685 -115.194134 246 26134ft 255kts
29-Mar-19 07:47 34.368480 -115.267633 246 26163ft 256kts
29-Mar-19 07:48 34.331248 -115.341061 246 26197ft 256kts
29-Mar-19 07:49 34.294015 -115.414321 246 26232ft 255kts
29-Mar-19 07:50 34.256834 -115.487363 247 26250ft 256kts
29-Mar-19 07:51 34.218971 -115.561568 246 25388ft 262kts
29-Mar-19 07:52 34.180587 -115.636661 246 24355ft 264kts
29-Mar-19 07:53 34.144580 -115.706869 246 24260ft 258kts
29-Mar-19 07:54 34.108241 -115.780974 252 24254ft 252kts
29-Mar-19 07:55 34.080113 -115.858189 252 24257ft 251kts
29-Mar-19 07:56 34.051873 -115.935601 253 24237ft 251kts
29-Mar-19 07:57 34.023527 -116.013127 253 24208ft 252kts
29-Mar-19 07:58 33.995178 -116.090470 252 24181ft 252kts
29-Mar-19 07:59 33.966242 -116.169253 252 23202ft 260kts
29-Mar-19 08:00 33.936677 -116.249532 252 22018ft 263kts
29-Mar-19 08:01 33.907035 -116.329807 252 20854ft 262kts
29-Mar-19 08:02 33.877551 -116.409459 251 19700ft 262kts
29-Mar-19 08:03 33.873050 -116.493289 275 18555ft 253kts
29-Mar-19 08:04 33.877113 -116.578318 275 17433ft 255kts
29-Mar-19 08:05 33.881064 -116.662836 274 16327ft 258kts
29-Mar-19 08:06 33.885101 -116.750230 274 15147ft 263kts
29-Mar-19 08:07 33.889125 -116.838837 274 14021ft 264kts
29-Mar-19 08:08 33.866083 -116.919488 252 14009ft 250kts
29-Mar-19 08:09 33.840169 -116.996427 252 13136ft 244kts
29-Mar-19 08:10 33.814895 -117.071317 253 12119ft 239kts
29-Mar-19 08:11 33.789946 -117.145554 258 11095ft 237kts
29-Mar-19 08:12 33.782956 -117.223440 270 9922ft 236kts
29-Mar-19 08:13 33.777699 -117.302727 270 8498ft 240kts
29-Mar-19 08:14 33.769396 -117.383422 281 7025ft 244kts
29-Mar-19 08:15 33.800893 -117.450870 298 6273ft 232kts
29-Mar-19 08:16 33.828093 -117.517191 281 5970ft 209kts
29-Mar-19 08:17 33.839967 -117.588636 281 4999ft 220kts
29-Mar-19 08:18 33.850840 -117.660318 281 3982ft 219kts
29-Mar-19 08:19 33.860617 -117.729223 274 3460ft 192kts
29-Mar-19 08:20 33.822075 -117.768084 214 3320ft 190kts
29-Mar-19 08:21 33.777450 -117.801468 210 1973ft 181kts
29-Mar-19 08:22 33.741504 -117.827012 206 1336ft 111kts
29-Mar-19 08:23 33.713797 -117.845038 206 938ft 96kts
29-Mar-19 08:24 33.691570 -117.858820 205 326ft 89kts
29-Mar-19 08:25 33.672076 -117.871092 208 49ft 39kts
29-Mar-19 08:26 33.670114 -117.873693 253 52ft 4kts
29-Mar-19 08:27 33.669854 -117.874648 212 52ft 0kts
29-Mar-19 08:28 33.669854 -117.874648 212 52ft 0kts
29-Mar-19 08:29 33.669854 -117.874648 212 52ft 0kts
29-Mar-19 08:31 33.669854 -117.874648 212 52ft 0kts
29-Mar-19 08:32 33.669854 -117.874648 212 52ft 0kts
29-Mar-19 08:33 33.669854 -117.874648 212 52ft 0kts
29-Mar-19 08:34 33.669854 -117.874648 212 52ft 0kts
29-Mar-19 08:35 33.669854 -117.874648 212 52ft 0kts

Navigation Log

Ident Type
Flight plan parsing failed, navigation log unavailable